createdAt,value
2018-05-06T00:02:07.717Z,23.29
2018-05-06T00:04:34.344Z,23.32
2018-05-06T00:07:01.112Z,23.29
2018-05-06T00:09:27.703Z,23.29
2018-05-06T00:11:54.409Z,23.28
2018-05-06T00:14:21.035Z,23.29
2018-05-06T00:16:47.639Z,23.29
2018-05-06T00:19:14.312Z,23.31
2018-05-06T00:21:40.940Z,23.33
2018-05-06T00:24:07.626Z,23.30
2018-05-06T00:26:34.225Z,23.32
2018-05-06T00:29:00.901Z,23.25
2018-05-06T00:31:27.537Z,23.25
2018-05-06T00:33:54.221Z,23.29
2018-05-06T00:36:20.838Z,23.27
2018-05-06T00:38:47.474Z,23.19
2018-05-06T00:41:14.157Z,23.24
2018-05-06T00:43:40.819Z,23.27
2018-05-06T00:46:07.421Z,23.22
2018-05-06T00:48:34.046Z,23.21
2018-05-06T00:51:00.812Z,23.25
2018-05-06T00:53:27.515Z,23.24
2018-05-06T00:55:54.173Z,23.19
2018-05-06T00:58:20.770Z,23.19
2018-05-06T01:00:47.465Z,23.17
2018-05-06T01:03:14.059Z,23.15
2018-05-06T01:05:40.773Z,23.15
2018-05-06T01:08:07.399Z,23.14
2018-05-06T01:10:34.038Z,23.14
2018-05-06T01:13:00.710Z,23.14
2018-05-06T01:15:27.315Z,23.14
2018-05-06T01:17:53.987Z,23.19
2018-05-06T01:20:20.619Z,23.18
2018-05-06T01:22:47.264Z,23.21
2018-05-06T01:25:13.941Z,23.13
2018-05-06T01:27:40.564Z,23.11
2018-05-06T01:30:07.203Z,23.11
2018-05-06T01:32:33.830Z,23.15
2018-05-06T01:35:00.467Z,23.14
2018-05-06T01:37:27.065Z,23.15
2018-05-06T01:39:53.711Z,23.14
2018-05-06T01:42:20.402Z,23.15
2018-05-06T01:44:47.147Z,23.14
2018-05-06T01:47:13.815Z,23.12
2018-05-06T01:49:40.426Z,23.08
2018-05-06T01:52:07.093Z,23.10
2018-05-06T01:54:33.708Z,23.10
2018-05-06T01:57:00.379Z,23.10
2018-05-06T01:59:26.974Z,23.08
2018-05-06T02:01:53.619Z,23.06
2018-05-06T02:04:20.249Z,23.11
2018-05-06T02:06:46.924Z,23.11
2018-05-06T02:09:13.558Z,23.09
2018-05-06T02:11:40.246Z,23.08
2018-05-06T02:14:06.878Z,23.05
2018-05-06T02:16:33.551Z,23.04
2018-05-06T02:19:00.190Z,23.02
2018-05-06T02:21:26.891Z,23.11
2018-05-06T02:23:53.491Z,23.04
2018-05-06T02:26:20.221Z,23.03
2018-05-06T02:28:46.855Z,23.00
2018-05-06T02:31:13.482Z,23.05
2018-05-06T02:33:40.163Z,23.06
2018-05-06T02:36:06.787Z,23.02
2018-05-06T02:38:33.428Z,22.97
2018-05-06T02:41:00.054Z,23.01
2018-05-06T02:43:26.698Z,22.98
2018-05-06T02:45:53.341Z,23.00
2018-05-06T02:48:19.990Z,22.98
2018-05-06T02:50:46.621Z,22.99
2018-05-06T02:53:13.291Z,23.02
2018-05-06T02:55:39.905Z,22.96
2018-05-06T02:58:06.587Z,23.00
2018-05-06T03:00:33.224Z,22.98
2018-05-06T03:02:59.862Z,23.01
2018-05-06T03:05:26.532Z,23.01
2018-05-06T03:07:53.172Z,23.01
2018-05-06T03:10:19.845Z,22.98
2018-05-06T03:12:46.507Z,22.97
2018-05-06T03:15:13.150Z,22.96
2018-05-06T03:17:39.812Z,22.95
2018-05-06T03:20:06.448Z,22.88
2018-05-06T03:22:33.089Z,22.94
2018-05-06T03:24:59.729Z,22.96
2018-05-06T03:27:26.410Z,22.96
2018-05-06T03:29:53.082Z,22.93
2018-05-06T03:32:19.747Z,22.93
2018-05-06T03:34:46.461Z,22.94
2018-05-06T03:37:13.131Z,22.91
2018-05-06T03:39:39.764Z,22.91
2018-05-06T03:42:06.435Z,22.91
2018-05-06T03:44:33.112Z,22.88
2018-05-06T03:46:59.709Z,22.86
2018-05-06T03:49:26.373Z,22.85
2018-05-06T03:51:52.985Z,22.82
2018-05-06T03:54:19.649Z,22.88
2018-05-06T03:56:46.285Z,22.91
2018-05-06T03:59:12.888Z,23.00
2018-05-06T04:01:40.540Z,23.00
2018-05-06T04:04:07.167Z,23.01
2018-05-06T04:06:33.847Z,23.21
2018-05-06T04:09:00.506Z,23.26
2018-05-06T04:11:27.149Z,23.22
2018-05-06T04:13:53.778Z,23.17
2018-05-06T04:16:20.488Z,23.21
2018-05-06T04:18:47.121Z,23.21
2018-05-06T04:21:13.865Z,23.24
2018-05-06T04:23:43.292Z,23.33
2018-05-06T04:26:10.021Z,23.34
2018-05-06T04:28:36.647Z,23.43
2018-05-06T04:31:03.332Z,23.38
2018-05-06T04:33:29.986Z,23.49
2018-05-06T04:35:56.585Z,23.49
2018-05-06T04:38:23.224Z,23.49
2018-05-06T04:40:49.898Z,23.47
2018-05-06T04:43:16.630Z,23.42
2018-05-06T04:45:43.341Z,23.48
2018-05-06T04:48:10.016Z,23.48
2018-05-06T04:50:36.697Z,23.54
2018-05-06T04:53:03.336Z,23.47
2018-05-06T04:55:29.929Z,23.49
2018-05-06T04:57:56.574Z,23.43
2018-05-06T05:00:23.251Z,23.42
2018-05-06T05:02:49.918Z,23.35
2018-05-06T05:05:16.557Z,23.38
2018-05-06T05:07:43.226Z,23.39
2018-05-06T05:10:09.893Z,23.40
2018-05-06T05:12:36.523Z,23.40
2018-05-06T05:15:03.161Z,23.39
2018-05-06T05:17:29.830Z,23.40
2018-05-06T05:19:56.504Z,23.46
2018-05-06T05:22:23.105Z,23.42
2018-05-06T05:24:49.799Z,23.48
2018-05-06T05:27:16.464Z,23.47
2018-05-06T05:29:43.107Z,23.49
2018-05-06T05:32:09.772Z,23.56
2018-05-06T05:34:36.416Z,23.61
2018-05-06T05:37:03.093Z,23.57
2018-05-06T05:39:29.688Z,23.51
2018-05-06T05:41:56.457Z,23.34
2018-05-06T05:44:23.051Z,23.25
2018-05-06T05:46:49.656Z,23.13
2018-05-06T05:49:16.292Z,23.15
2018-05-06T05:51:42.982Z,23.22
2018-05-06T05:54:09.654Z,23.16
2018-05-06T05:56:36.279Z,23.14
2018-05-06T05:59:02.929Z,23.14
2018-05-06T06:01:29.564Z,23.20
2018-05-06T06:03:56.197Z,23.17
2018-05-06T06:06:22.920Z,23.27
2018-05-06T06:08:49.605Z,23.33
2018-05-06T06:11:16.198Z,23.36
2018-05-06T06:13:42.903Z,23.44
2018-05-06T06:16:09.509Z,23.45
2018-05-06T06:18:36.178Z,23.51
2018-05-06T06:21:02.825Z,23.51
2018-05-06T06:23:29.457Z,23.51
2018-05-06T06:25:56.089Z,23.57
2018-05-06T06:28:22.773Z,23.60
2018-05-06T06:30:49.443Z,23.58
2018-05-06T06:33:16.050Z,23.59
2018-05-06T06:35:42.725Z,23.52
2018-05-06T06:38:09.390Z,23.53
2018-05-06T06:40:36.083Z,23.48
2018-05-06T06:43:02.712Z,23.51
2018-05-06T06:45:29.376Z,23.52
2018-05-06T06:47:56.046Z,23.45
2018-05-06T06:50:22.681Z,23.40
2018-05-06T06:52:49.329Z,23.39
2018-05-06T06:55:16.050Z,23.32
2018-05-06T06:57:42.655Z,23.33
2018-05-06T07:00:09.323Z,23.30
2018-05-06T07:02:35.964Z,23.28
2018-05-06T07:05:02.635Z,23.28
2018-05-06T07:07:29.266Z,22.98
2018-05-06T07:09:55.901Z,22.79
2018-05-06T07:12:22.505Z,22.80
2018-05-06T07:14:49.177Z,22.81
2018-05-06T07:17:15.813Z,22.82
2018-05-06T07:19:42.482Z,22.88
2018-05-06T07:22:09.115Z,22.91
2018-05-06T07:24:35.756Z,22.98
2018-05-06T07:27:02.389Z,23.04
2018-05-06T07:29:29.052Z,23.01
2018-05-06T07:31:55.710Z,23.00
2018-05-06T07:34:22.345Z,23.04
2018-05-06T07:36:49.007Z,22.99
2018-05-06T07:39:15.648Z,23.09
2018-05-06T07:41:42.317Z,23.05
2018-05-06T07:44:08.953Z,23.09
2018-05-06T07:46:35.586Z,23.05
2018-05-06T07:49:02.233Z,23.17
2018-05-06T07:51:28.887Z,23.10
2018-05-06T07:53:55.545Z,23.20
2018-05-06T07:56:22.176Z,23.17
2018-05-06T07:58:48.930Z,23.21
2018-05-06T08:01:15.556Z,23.28
2018-05-06T08:03:42.192Z,23.25
2018-05-06T08:06:08.877Z,23.30
2018-05-06T08:08:35.475Z,23.39
2018-05-06T08:11:02.153Z,23.44
2018-05-06T08:13:28.779Z,23.33
2018-05-06T08:15:55.450Z,23.40
2018-05-06T08:18:22.065Z,23.43
2018-05-06T08:20:48.745Z,23.45
2018-05-06T08:23:15.382Z,23.44
2018-05-06T08:25:42.099Z,23.49
2018-05-06T08:28:08.693Z,23.42
2018-05-06T08:30:35.379Z,23.49
2018-05-06T08:33:02.014Z,23.40
2018-05-06T08:35:28.691Z,23.47
2018-05-06T08:37:55.341Z,23.42
2018-05-06T08:40:21.970Z,23.46
2018-05-06T08:42:48.661Z,23.41
2018-05-06T08:45:15.291Z,23.53
2018-05-06T08:47:41.886Z,23.52
2018-05-06T08:50:08.538Z,23.53
2018-05-06T08:52:35.277Z,23.56
2018-05-06T08:55:01.885Z,23.59
2018-05-06T08:57:28.552Z,23.53
2018-05-06T08:59:55.193Z,23.60
2018-05-06T09:02:21.841Z,23.60
2018-05-06T09:04:48.481Z,23.60
2018-05-06T09:07:15.174Z,23.63
2018-05-06T09:09:41.845Z,23.62
2018-05-06T09:12:08.493Z,23.67
2018-05-06T09:14:35.134Z,23.63
2018-05-06T09:17:01.843Z,23.67
2018-05-06T09:19:28.444Z,23.60
2018-05-06T09:21:55.121Z,23.64
2018-05-06T09:24:21.731Z,23.65
2018-05-06T09:26:49.795Z,23.67
2018-05-06T09:29:15.069Z,23.62
2018-05-06T09:31:41.720Z,23.68
2018-05-06T09:34:11.145Z,23.60
2018-05-06T09:36:37.778Z,23.71
2018-05-06T09:39:04.391Z,23.59
2018-05-06T09:41:31.026Z,23.62
2018-05-06T09:43:57.706Z,23.52
2018-05-06T09:46:24.337Z,23.62
2018-05-06T09:48:50.975Z,23.61
2018-05-06T09:51:17.616Z,23.71
2018-05-06T09:53:44.298Z,23.59
2018-05-06T09:56:10.891Z,23.67
2018-05-06T09:58:37.572Z,23.54
2018-05-06T10:01:04.167Z,23.60
2018-05-06T10:03:30.809Z,23.58
2018-05-06T10:05:57.439Z,23.58
2018-05-06T10:08:24.088Z,23.55
2018-05-06T10:10:50.719Z,23.67
2018-05-06T10:13:17.362Z,23.61
2018-05-06T10:15:44.020Z,23.62
2018-05-06T10:18:10.678Z,23.62
2018-05-06T10:20:37.283Z,23.63
2018-05-06T10:23:03.921Z,23.60
2018-05-06T10:25:30.560Z,23.63
2018-05-06T10:27:57.202Z,23.57
2018-05-06T10:30:23.922Z,23.63
2018-05-06T10:32:50.525Z,23.58
2018-05-06T10:35:17.197Z,23.60
2018-05-06T10:37:43.830Z,23.54
2018-05-06T10:40:10.458Z,23.60
2018-05-06T10:42:37.096Z,23.56
2018-05-06T10:45:03.699Z,23.58
2018-05-06T10:47:30.369Z,23.54
2018-05-06T10:49:56.970Z,23.61
2018-05-06T10:52:23.609Z,23.62
2018-05-06T10:54:50.280Z,23.64
2018-05-06T10:57:16.921Z,23.59
2018-05-06T10:59:43.556Z,23.65
2018-05-06T11:02:10.171Z,23.62
2018-05-06T11:04:36.841Z,23.61
2018-05-06T11:07:03.502Z,23.68
2018-05-06T11:09:30.103Z,23.65
2018-05-06T11:11:56.762Z,23.62
2018-05-06T11:14:23.537Z,23.65
2018-05-06T11:16:50.173Z,23.70
2018-05-06T11:19:16.808Z,23.62
2018-05-06T11:21:43.509Z,23.66
2018-05-06T11:24:10.146Z,23.68
2018-05-06T11:26:36.782Z,23.69
2018-05-06T11:29:03.464Z,23.62
2018-05-06T11:31:30.065Z,23.69
2018-05-06T11:33:56.721Z,23.59
2018-05-06T11:36:23.396Z,23.54
2018-05-06T11:38:50.002Z,23.57
2018-05-06T11:41:16.640Z,23.51
2018-05-06T11:43:43.282Z,23.50
2018-05-06T11:46:09.910Z,23.53
2018-05-06T11:48:36.544Z,23.47
2018-05-06T11:51:03.187Z,23.45
2018-05-06T11:53:29.826Z,23.46
2018-05-06T11:55:56.488Z,23.43
2018-05-06T11:58:23.140Z,23.44
2018-05-06T12:00:49.734Z,23.44
2018-05-06T12:03:16.407Z,23.45
2018-05-06T12:05:43.010Z,23.50
2018-05-06T12:08:09.682Z,23.44
2018-05-06T12:10:36.313Z,23.46
2018-05-06T12:13:02.956Z,23.47
2018-05-06T12:15:29.591Z,23.49
2018-05-06T12:17:56.221Z,23.46
2018-05-06T12:20:22.821Z,23.47
2018-05-06T12:22:49.461Z,23.49
2018-05-06T12:25:16.141Z,23.50
2018-05-06T12:27:42.773Z,23.51
2018-05-06T12:30:09.374Z,23.55
2018-05-06T12:32:36.016Z,23.51
2018-05-06T12:35:02.655Z,23.53
2018-05-06T12:37:29.314Z,23.51
2018-05-06T12:39:55.961Z,23.56
2018-05-06T12:42:22.558Z,23.57
2018-05-06T12:44:49.185Z,23.53
2018-05-06T12:47:15.873Z,23.56
2018-05-06T12:49:42.478Z,23.51
2018-05-06T12:52:09.209Z,23.59
2018-05-06T12:54:35.837Z,23.56
2018-05-06T12:57:02.508Z,23.54
2018-05-06T12:59:29.110Z,23.51
2018-05-06T13:01:55.749Z,23.48
2018-05-06T13:04:22.393Z,23.53
2018-05-06T13:06:49.033Z,23.47
2018-05-06T13:09:15.669Z,23.48
2018-05-06T13:11:42.375Z,23.51
2018-05-06T13:14:09.039Z,23.49
2018-05-06T13:16:35.645Z,23.54
2018-05-06T13:19:02.328Z,23.51
2018-05-06T13:21:28.951Z,23.51
2018-05-06T13:23:55.588Z,23.54
2018-05-06T13:26:22.257Z,23.53
2018-05-06T13:28:51.757Z,23.53
2018-05-06T13:31:18.405Z,23.51
2018-05-06T13:33:45.003Z,23.50
2018-05-06T13:36:11.720Z,23.47
2018-05-06T13:38:38.411Z,23.46
2018-05-06T13:41:05.051Z,23.51
2018-05-06T13:43:31.722Z,23.51
2018-05-06T13:45:58.353Z,23.53
2018-05-06T13:48:24.978Z,23.46
2018-05-06T13:50:51.696Z,23.51
2018-05-06T13:53:18.337Z,23.51
2018-05-06T13:55:44.941Z,23.49
2018-05-06T13:58:11.604Z,23.47
2018-05-06T14:00:38.215Z,23.50
2018-05-06T14:03:04.908Z,23.51
2018-05-06T14:05:31.537Z,23.48
2018-05-06T14:07:58.165Z,23.53
2018-05-06T14:10:24.850Z,23.52
2018-05-06T14:12:52.765Z,23.52
2018-05-06T14:15:18.122Z,23.49
2018-05-06T14:17:44.763Z,23.48
2018-05-06T14:20:11.396Z,23.53
2018-05-06T14:22:38.066Z,23.49
2018-05-06T14:25:04.695Z,23.47
2018-05-06T14:27:31.332Z,23.49
2018-05-06T14:29:57.964Z,23.46
2018-05-06T14:32:24.607Z,23.52
2018-05-06T14:34:51.282Z,23.40
2018-05-06T14:37:17.884Z,23.49
2018-05-06T14:39:44.518Z,23.44
2018-05-06T14:42:11.188Z,23.47
2018-05-06T14:44:37.825Z,23.49
2018-05-06T14:47:04.459Z,23.51
2018-05-06T14:49:31.068Z,23.50
2018-05-06T14:51:57.731Z,23.45
2018-05-06T14:54:24.373Z,23.50
2018-05-06T14:56:51.008Z,23.44
2018-05-06T14:59:17.645Z,23.40
2018-05-06T15:01:44.245Z,23.48
2018-05-06T15:04:10.884Z,23.45
2018-05-06T15:06:37.524Z,23.47
2018-05-06T15:09:04.158Z,23.44
2018-05-06T15:11:30.837Z,23.02
2018-05-06T15:13:57.439Z,22.95
2018-05-06T15:16:24.113Z,23.06
2018-05-06T15:18:50.711Z,23.10
2018-05-06T15:21:17.385Z,23.27
2018-05-06T15:23:44.026Z,23.24
2018-05-06T15:26:10.730Z,23.34
2018-05-06T15:28:37.400Z,23.38
2018-05-06T15:31:04.005Z,23.36
2018-05-06T15:33:30.674Z,23.35
2018-05-06T15:35:57.344Z,23.35
2018-05-06T15:38:23.980Z,23.36
2018-05-06T15:40:50.652Z,23.27
2018-05-06T15:43:17.430Z,23.34
2018-05-06T15:45:44.027Z,23.28
2018-05-06T15:48:10.706Z,23.26
2018-05-06T15:50:37.390Z,23.27
2018-05-06T15:53:03.981Z,23.24
2018-05-06T15:55:30.653Z,23.13
2018-05-06T15:58:00.022Z,23.10
2018-05-06T16:00:26.665Z,23.07
2018-05-06T16:02:53.297Z,23.05
2018-05-06T16:05:19.902Z,23.07
2018-05-06T16:07:46.535Z,23.06
2018-05-06T16:10:13.247Z,22.98
2018-05-06T16:12:39.880Z,23.08
2018-05-06T16:15:06.521Z,23.01
2018-05-06T16:17:33.147Z,22.97
2018-05-06T16:19:59.799Z,22.91
2018-05-06T16:22:26.508Z,22.87
2018-05-06T16:24:53.063Z,22.90
2018-05-06T16:27:19.709Z,22.91
2018-05-06T16:29:49.136Z,22.86
2018-05-06T16:32:15.808Z,22.80
2018-05-06T16:34:42.481Z,22.84
2018-05-06T16:37:09.161Z,22.76
2018-05-06T16:39:35.764Z,22.77
2018-05-06T16:42:02.405Z,22.73
2018-05-06T16:44:29.069Z,22.72
2018-05-06T16:46:55.711Z,22.68
2018-05-06T16:49:22.381Z,22.69
2018-05-06T16:51:48.988Z,22.64
2018-05-06T16:54:15.655Z,22.56
2018-05-06T16:56:42.299Z,22.63
2018-05-06T16:59:08.932Z,22.57
2018-05-06T17:01:35.561Z,22.53
2018-05-06T17:04:02.279Z,22.45
2018-05-06T17:06:28.902Z,22.47
2018-05-06T17:08:55.615Z,22.44
2018-05-06T17:11:22.210Z,22.46
2018-05-06T17:13:48.898Z,22.39
2018-05-06T17:16:15.531Z,22.36
2018-05-06T17:18:42.167Z,22.33
2018-05-06T17:21:08.840Z,22.49
2018-05-06T17:23:35.521Z,22.57
2018-05-06T17:26:02.205Z,22.42
2018-05-06T17:28:28.808Z,22.43
2018-05-06T17:30:55.440Z,22.51
2018-05-06T17:33:22.146Z,22.46
2018-05-06T17:35:48.753Z,22.36
2018-05-06T17:38:15.435Z,22.39
2018-05-06T17:40:42.065Z,22.35
2018-05-06T17:43:08.746Z,22.34
2018-05-06T17:45:35.408Z,22.44
2018-05-06T17:48:02.055Z,22.48
2018-05-06T17:50:28.692Z,22.54
2018-05-06T17:52:55.367Z,22.61
2018-05-06T17:55:21.965Z,22.67
2018-05-06T17:57:48.650Z,22.67
2018-05-06T18:00:15.285Z,22.72
2018-05-06T18:02:41.950Z,22.73
2018-05-06T18:05:08.596Z,22.75
2018-05-06T18:07:35.273Z,22.78
2018-05-06T18:10:04.794Z,22.87
2018-05-06T18:12:31.468Z,22.91
2018-05-06T18:14:58.063Z,22.90
2018-05-06T18:17:24.690Z,22.96
2018-05-06T18:19:51.372Z,22.96
2018-05-06T18:22:17.966Z,22.91
2018-05-06T18:24:44.733Z,22.99
2018-05-06T18:27:11.305Z,23.01
2018-05-06T18:29:37.935Z,23.00
2018-05-06T18:32:04.536Z,22.99
2018-05-06T18:34:31.174Z,23.02
2018-05-06T18:36:57.839Z,23.02
2018-05-06T18:39:24.485Z,23.04
2018-05-06T18:41:51.153Z,22.98
2018-05-06T18:44:17.751Z,23.11
2018-05-06T18:46:44.451Z,23.06
2018-05-06T18:49:11.060Z,23.04
2018-05-06T18:51:37.690Z,23.05
2018-05-06T18:54:04.335Z,23.08
2018-05-06T18:56:30.973Z,23.08
2018-05-06T18:58:57.607Z,23.08
2018-05-06T19:01:24.293Z,23.09
2018-05-06T19:03:50.976Z,23.05
2018-05-06T19:06:17.615Z,23.10
2018-05-06T19:08:44.352Z,22.97
2018-05-06T19:11:10.990Z,23.07
2018-05-06T19:13:37.660Z,23.09
2018-05-06T19:16:04.287Z,23.09
2018-05-06T19:18:30.974Z,23.08
2018-05-06T19:20:57.576Z,23.07
2018-05-06T19:23:24.221Z,23.09
2018-05-06T19:25:50.890Z,23.06
2018-05-06T19:28:17.521Z,23.07
2018-05-06T19:30:44.182Z,23.11
2018-05-06T19:33:10.790Z,23.12
2018-05-06T19:35:37.432Z,23.07
2018-05-06T19:38:04.115Z,23.08
2018-05-06T19:40:30.753Z,23.09
2018-05-06T19:42:57.422Z,23.08
2018-05-06T19:45:24.085Z,23.11
2018-05-06T19:47:50.687Z,23.11
2018-05-06T19:50:17.352Z,23.10
2018-05-06T19:52:43.960Z,23.11
2018-05-06T19:55:10.581Z,23.13
2018-05-06T19:57:37.226Z,23.11
2018-05-06T20:00:03.899Z,23.13
2018-05-06T20:02:30.608Z,23.08
2018-05-06T20:04:57.202Z,23.10
2018-05-06T20:07:23.920Z,23.11
2018-05-06T20:09:50.478Z,23.12
2018-05-06T20:12:17.151Z,23.11
2018-05-06T20:14:43.753Z,23.09
2018-05-06T20:17:10.522Z,23.08
2018-05-06T20:19:37.280Z,23.12
2018-05-06T20:22:03.941Z,23.12
2018-05-06T20:24:30.533Z,23.08
2018-05-06T20:26:57.293Z,23.04
2018-05-06T20:29:23.892Z,23.06
2018-05-06T20:31:50.561Z,23.07
2018-05-06T20:34:17.195Z,23.09
2018-05-06T20:36:43.837Z,23.11
2018-05-06T20:39:10.517Z,23.05
2018-05-06T20:41:37.192Z,23.07
2018-05-06T20:44:03.823Z,23.07
2018-05-06T20:46:30.460Z,23.08
2018-05-06T20:48:57.064Z,23.09
2018-05-06T20:51:23.722Z,23.05
2018-05-06T20:53:50.401Z,23.07
2018-05-06T20:56:17.042Z,23.06
2018-05-06T20:58:43.685Z,23.08
2018-05-06T21:01:10.358Z,23.05
2018-05-06T21:03:37.074Z,23.03
2018-05-06T21:06:03.719Z,23.04
2018-05-06T21:08:30.392Z,23.02
2018-05-06T21:10:57.023Z,23.05
2018-05-06T21:13:23.705Z,23.06
2018-05-06T21:15:50.315Z,23.02
2018-05-06T21:18:16.951Z,23.08
2018-05-06T21:20:43.642Z,23.01
2018-05-06T21:23:10.284Z,23.01
2018-05-06T21:25:36.968Z,23.05
2018-05-06T21:28:03.632Z,23.05
2018-05-06T21:30:30.241Z,23.03
2018-05-06T21:32:57.690Z,23.04
2018-05-06T21:35:26.273Z,23.08
2018-05-06T21:37:52.949Z,23.05
2018-05-06T21:40:19.635Z,23.03
2018-05-06T21:42:46.247Z,23.04
2018-05-06T21:45:12.876Z,22.99
2018-05-06T21:47:39.563Z,23.05
2018-05-06T21:50:06.174Z,23.06
2018-05-06T21:52:32.846Z,23.06
2018-05-06T21:54:59.496Z,23.04
2018-05-06T21:59:52.849Z,23.06
2018-05-06T22:02:19.497Z,23.03
2018-05-06T22:04:46.229Z,23.01
2018-05-06T22:07:12.866Z,23.04
2018-05-06T22:09:39.566Z,23.02
2018-05-06T22:12:06.159Z,23.02
2018-05-06T22:14:32.843Z,23.07
2018-05-06T22:16:59.465Z,23.01
2018-05-06T22:19:26.145Z,23.01
2018-05-06T22:21:52.858Z,23.00
2018-05-06T22:24:19.499Z,22.97
2018-05-06T22:26:46.134Z,23.05
2018-05-06T22:29:14.798Z,23.02
2018-05-06T22:31:41.437Z,23.05
2018-05-06T22:34:08.180Z,23.00
2018-05-06T22:36:34.744Z,23.00
2018-05-06T22:39:01.414Z,22.99
2018-05-06T22:41:28.063Z,22.99
2018-05-06T22:43:54.734Z,22.96
2018-05-06T22:46:21.348Z,22.99
2018-05-06T22:48:48.023Z,22.99
2018-05-06T22:51:14.634Z,23.00
2018-05-06T22:53:41.272Z,23.01
2018-05-06T22:56:08.107Z,22.98
2018-05-06T22:58:34.872Z,22.98
2018-05-06T23:01:01.478Z,22.96
2018-05-06T23:03:28.159Z,22.95
2018-05-06T23:05:54.790Z,22.97
2018-05-06T23:08:21.494Z,22.98
2018-05-06T23:10:48.126Z,22.98
2018-05-06T23:13:14.846Z,22.96
2018-05-06T23:15:44.292Z,22.93
2018-05-06T23:18:10.933Z,22.97
2018-05-06T23:20:37.598Z,22.96
2018-05-06T23:23:04.248Z,22.97
2018-05-06T23:25:30.905Z,22.92
2018-05-06T23:27:57.581Z,22.91
2018-05-06T23:30:24.251Z,22.93
2018-05-06T23:32:50.912Z,22.98
2018-05-06T23:35:17.582Z,22.92
2018-05-06T23:37:45.582Z,22.95
2018-05-06T23:40:10.920Z,22.88
2018-05-06T23:42:37.558Z,22.94
2018-05-06T23:45:04.233Z,22.95
2018-05-06T23:47:30.877Z,22.94
2018-05-06T23:49:57.525Z,22.93
2018-05-06T23:52:24.197Z,22.89
2018-05-06T23:54:50.850Z,22.90
2018-05-06T23:57:17.492Z,22.90
2018-05-06T23:59:44.131Z,22.89
